Blue Note — V2EU8 — position and weather

sailwx.info

Track history (hours):
 
Tides and Currents Weather Stations Pressure Air Temp Water Temp Dewpoint Dewpoint Depression Visibility Wind Speed Wind Dir Waves Ship Positions

Blue Note

Last reported at 2018-Jun-24 03:30 UTC. Time now 2018-Jun-24 03:41 UTC.
Position N 38°57' W 009°50'.

Length 89 m; draft 4 m.

Type: Cargo ship. MMSI: 305565000.

Date/timePositionNaut miles runAvg speedWind from/ knotsBaromVisibWave heightAir tempDewpointWater temp
2018-Jun-24 03:30N 38°57' W 009°50'5 9.6
2018-Jun-24 03:00N 38°52' W 009°50'5 9.5
2018-Jun-24 02:30N 38°47' W 009°50'5 9.5
2018-Jun-24 02:01N 38°43' W 009°50'5 9.4
2018-Jun-24 01:30N 38°38' W 009°48'510.2
2018-Jun-24 01:00N 38°36' W 009°42'5 9.9
2018-Jun-24 00:30N 38°34' W 009°37'5 9.8
2018-Jun-24 00:00N 38°32' W 009°31'510.1
2018-Jun-23 23:30N 38°29' W 009°26'510.2
2018-Jun-23 23:00N 38°25' W 009°21'510.4
2018-Jun-23 22:31N 38°22' W 009°16'5 9.7
2018-Jun-23 22:00N 38°21' W 009°10'510.0
2018-Jun-23 21:30N 38°23' W 009°04'510.4
2018-Jun-23 21:00N 38°26' W 008°59'4 8.1
2018-Jun-23 20:30N 38°30' W 008°55'3 0.9
2018-Jun-23 17:23N 38°31' W 008°52'0 0.0
2018-Jun-23 16:59N 38°31' W 008°52'0 0.0
2018-Jun-23 16:26N 38°31' W 008°52'0 0.0
2018-Jun-23 16:01N 38°31' W 008°52'0 0.0
2018-Jun-23 15:31N 38°31' W 008°52'0 0.0
2018-Jun-23 15:01N 38°31' W 008°52'0 0.0
2018-Jun-23 14:31N 38°31' W 008°52'0 0.0
2018-Jun-23 13:04N 38°31' W 008°52'0 0.0
2018-Jun-23 12:52N 38°31' W 008°52'0 0.0
2018-Jun-23 12:30N 38°31' W 008°52'0 0.0
2018-Jun-23 11:36N 38°31' W 008°52'0 0.1
2018-Jun-23 11:30N 38°31' W 008°52'0 0.0
2018-Jun-23 10:57N 38°31' W 008°52'0 0.0
2018-Jun-23 09:45N 38°31' W 008°52'0 0.0
2018-Jun-23 05:36N 38°31' W 008°52'0 0.0
2018-Jun-23 05:24N 38°31' W 008°52'0 0.0
2018-Jun-23 04:54N 38°31' W 008°52'0 0.0
2018-Jun-23 04:24N 38°31' W 008°52'0 0.0
2018-Jun-23 03:00N 38°31' W 008°52'0 0.0
2018-Jun-23 02:24N 38°31' W 008°52'0 0.0
2018-Jun-23 01:45N 38°31' W 008°52'0 0.0
2018-Jun-23 01:30N 38°31' W 008°52'0 0.0
2018-Jun-23 01:00N 38°31' W 008°52'0 0.0
2018-Jun-23 00:30N 38°31' W 008°52'0 0.0
2018-Jun-23 00:00N 38°31' W 008°52'0 0.0
2018-Jun-22 23:24N 38°31' W 008°52'0 0.0
2018-Jun-22 22:54N 38°31' W 008°52'0 0.0
2018-Jun-22 22:30N 38°31' W 008°52'0 0.0
2018-Jun-22 22:00N 38°31' W 008°52'0 0.0
2018-Jun-22 21:27N 38°31' W 008°52'0 0.0
2018-Jun-22 20:57N 38°31' W 008°52'0 0.0
2018-Jun-22 20:27N 38°31' W 008°52'0 0.0
2018-Jun-22 20:00N 38°31' W 008°52'0 0.0
2018-Jun-22 19:27N 38°31' W 008°52'0 0.0
2018-Jun-22 18:54N 38°31' W 008°52'0 0.0
2018-Jun-22 18:21N 38°31' W 008°52'0 0.0
2018-Jun-22 17:51N 38°31' W 008°52'0 0.0
2018-Jun-22 17:27N 38°31' W 008°52'0 0.0
2018-Jun-22 16:37N 38°31' W 008°52'0 0.0
2018-Jun-22 16:24N 38°31' W 008°52'0 0.0
2018-Jun-22 16:00N 38°31' W 008°52'0 0.0
2018-Jun-22 15:30N 38°31' W 008°52'0 0.0
2018-Jun-22 11:54N 38°31' W 008°52'0 0.0
2018-Jun-22 11:30N 38°31' W 008°52'0 0.0
2018-Jun-22 10:42N 38°31' W 008°52'0 0.0
2018-Jun-22 10:30N 38°31' W 008°52'0 0.0
2018-Jun-22 05:36N 38°31' W 008°52'0 0.0
2018-Jun-22 03:42N 38°31' W 008°52'0 0.0
2018-Jun-21 17:15N 38°31' W 008°52'0 0.0
2018-Jun-21 16:48N 38°31' W 008°52'0 0.0
2018-Jun-21 16:27N 38°31' W 008°52'0 0.0
2018-Jun-21 16:00N 38°31' W 008°52'0 0.0
2018-Jun-21 15:30N 38°31' W 008°52'0 0.0
2018-Jun-21 14:57N 38°31' W 008°52'0 0.0
2018-Jun-21 14:27N 38°31' W 008°52'0 0.0
2018-Jun-21 14:00N 38°31' W 008°52'0 0.0
2018-Jun-21 13:30N 38°31' W 008°52'0 0.0
2018-Jun-21 13:00N 38°31' W 008°52'0 0.0
2018-Jun-21 11:57N 38°31' W 008°52'0 0.0
2018-Jun-21 10:33N 38°31' W 008°52'0 0.0
2018-Jun-21 10:24N 38°31' W 008°52'0 0.0
2018-Jun-21 09:57N 38°31' W 008°52'0 0.0
2018-Jun-21 09:12N 38°31' W 008°52'0 0.0
2018-Jun-21 06:33N 38°31' W 008°52'0 0.1
2018-Jun-21 06:27N 38°31' W 008°52'0 0.0
2018-Jun-21 05:21N 38°31' W 008°52'0 0.0
2018-Jun-21 04:39N 38°31' W 008°52'0 0.0
2018-Jun-21 04:15N 38°31' W 008°52'0 0.0
2018-Jun-21 03:57N 38°31' W 008°52'0 0.0
2018-Jun-21 03:30N 38°31' W 008°52'0 0.0
2018-Jun-21 02:54N 38°31' W 008°52'0 0.0
2018-Jun-21 02:30N 38°31' W 008°52'0 0.0
2018-Jun-21 01:09N 38°31' W 008°52'0 0.0
2018-Jun-21 00:57N 38°31' W 008°52'0 0.0
2018-Jun-20 22:53N 38°31' W 008°52'1 3.4
2018-Jun-20 22:28N 38°31' W 008°54'4 8.8
2018-Jun-20 22:00N 38°28' W 008°57'4 8.4
2018-Jun-20 21:30N 38°24' W 008°60'510.3
2018-Jun-20 21:00N 38°19' W 009°01'510.6
2018-Jun-20 20:30N 38°14' W 009°02'510.2
2018-Jun-20 20:00N 38°09' W 009°03'510.1
2018-Jun-20 19:30N 38°04' W 009°04'510.1
2018-Jun-20 19:00N 37°59' W 009°05'510.5
2018-Jun-20 18:30N 37°53' W 009°07'510.7
2018-Jun-20 18:00N 37°48' W 009°08'510.6
2018-Jun-20 17:30N 37°43' W 009°10'510.9
2018-Jun-20 17:00N 37°38' W 009°11'510.9
2018-Jun-20 16:30N 37°32' W 009°13'510.6
2018-Jun-20 16:00N 37°27' W 009°14'610.5
2018-Jun-20 15:25N 37°21' W 009°15'50 9.0
2018-Jun-20 09:50N 36°34' W 008°55'3810.3
2018-Jun-20 06:09N 35°58' W 008°38'  
2018-Jun-17 12:48N 35°47' W 008°41'36 8.1
2018-Jun-17 08:25N 36°19' W 008°59'4 8.2
2018-Jun-17 07:59N 36°23' W 009°00'4 8.6
2018-Jun-17 07:28N 36°27' W 009°03'36 8.2
2018-Jun-17 03:05N 36°52' W 009°36'1 8.9
2018-Jun-17 03:00N 36°52' W 009°36'5 9.3
2018-Jun-17 02:30N 36°57' W 009°37'5 9.5
2018-Jun-17 02:00N 37°01' W 009°38'6 9.3
2018-Jun-17 01:20N 37°08' W 009°40'4 9.5
2018-Jun-17 00:52N 37°12' W 009°41'49 9.1
2018-Jun-16 19:28N 37°60' W 009°55'5 9.1
2018-Jun-16 18:52N 38°05' W 009°57'3 9.0
2018-Jun-16 18:30N 38°08' W 009°58'5 9.1
2018-Jun-16 18:00N 38°13' W 009°59'5 9.1
2018-Jun-16 17:30N 38°17' W 010°00'4 8.9
2018-Jun-16 17:00N 38°21' W 010°01'5 9.1
2018-Jun-16 16:30N 38°26' W 010°02'5 9.4
2018-Jun-16 16:00N 38°30' W 010°04'5 9.3
2018-Jun-16 15:30N 38°35' W 010°05'5 9.5
2018-Jun-16 15:00N 38°40' W 010°06'5 9.2
2018-Jun-16 14:30N 38°44' W 010°07'5 9.2
2018-Jun-16 14:00N 38°49' W 010°07'5 9.1
2018-Jun-16 13:30N 38°53' W 010°06'5 9.1
2018-Jun-16 13:00N 38°58' W 010°06'5 9.1
2018-Jun-16 12:30N 39°02' W 010°05'5 9.2
2018-Jun-16 12:00N 39°07' W 010°04'5 9.2
2018-Jun-16 11:30N 39°11' W 010°03'5 9.2
2018-Jun-16 11:00N 39°16' W 010°02'5 9.3
2018-Jun-16 10:30N 39°21' W 010°00'5 9.5
2018-Jun-16 10:00N 39°25' W 009°59'18 9.2
2018-Jun-16 08:05N 39°42' W 009°53'1 9.2
2018-Jun-16 08:00N 39°43' W 009°53'5 9.3
2018-Jun-16 07:30N 39°47' W 009°51'17 9.3
2018-Jun-16 05:41N 40°04' W 009°45'2 9.4
2018-Jun-16 05:26N 40°06' W 009°44'5 9.2
2018-Jun-16 04:56N 40°10' W 009°43'4 8.9
2018-Jun-16 04:30N 40°14' W 009°42'5 8.9
2018-Jun-16 03:59N 40°19' W 009°41'4 8.9
2018-Jun-16 03:29N 40°23' W 009°39'11 9.2
2018-Jun-16 02:18N 40°33' W 009°35'5 9.1
2018-Jun-16 01:48N 40°38' W 009°34'18 9.1
2018-Jun-15 23:48N 40°55' W 009°28'1 2.6
2018-Jun-15 23:30N 40°56' W 009°28'36 6.6
2018-Jun-15 18:06N 41°09' W 008°43'1 9.0
2018-Jun-15 18:00N 41°09' W 008°43'3 3.5
2018-Jun-15 17:16N 41°12' W 008°41'0 0.0
2018-Jun-15 16:52N 41°12' W 008°41'0 0.0
2018-Jun-15 16:25N 41°12' W 008°41'0 0.0
2018-Jun-15 15:55N 41°12' W 008°41'0 0.0
2018-Jun-15 15:25N 41°12' W 008°41'0 0.0
2018-Jun-15 14:58N 41°12' W 008°41'0 0.0
2018-Jun-15 14:19N 41°12' W 008°41'0 0.0
2018-Jun-15 13:25N 41°12' W 008°41'0 0.0
2018-Jun-15 12:58N 41°12' W 008°41'0 0.0
2018-Jun-15 12:28N 41°12' W 008°41'0 0.0
2018-Jun-15 11:52N 41°12' W 008°41'0 0.0
2018-Jun-15 10:43N 41°12' W 008°41'0 0.0
2018-Jun-15 10:28N 41°12' W 008°41'0 0.0
2018-Jun-15 09:58N 41°12' W 008°41'0 0.0
2018-Jun-15 09:28N 41°12' W 008°41'0 0.0
2018-Jun-15 08:58N 41°12' W 008°41'0 0.0
2018-Jun-15 08:22N 41°12' W 008°41'0 0.0
2018-Jun-15 07:58N 41°12' W 008°41'0 0.0
2018-Jun-15 07:28N 41°12' W 008°41'0 0.0
2018-Jun-15 06:58N 41°12' W 008°41'0 0.0
2018-Jun-15 06:25N 41°12' W 008°41'0 0.0
2018-Jun-15 05:58N 41°12' W 008°41'0 0.0
2018-Jun-15 05:28N 41°12' W 008°41'0 0.0
2018-Jun-15 04:58N 41°12' W 008°41'0 0.0
2018-Jun-15 04:28N 41°12' W 008°41'0 0.0
2018-Jun-15 03:58N 41°12' W 008°41'0 0.0
2018-Jun-15 03:28N 41°12' W 008°41'0 0.0
2018-Jun-15 02:58N 41°12' W 008°41'0 0.0
2018-Jun-15 02:28N 41°12' W 008°41'0 0.0
2018-Jun-15 01:58N 41°12' W 008°41'0 0.0
2018-Jun-15 01:28N 41°12' W 008°41'0 0.0
2018-Jun-15 00:58N 41°12' W 008°41'0 0.0
2018-Jun-15 00:28N 41°12' W 008°41'0 0.0
2018-Jun-14 23:58N 41°12' W 008°41'0 0.0
2018-Jun-14 23:25N 41°12' W 008°41'0 0.0
2018-Jun-14 22:58N 41°12' W 008°41'0 0.0
2018-Jun-14 22:28N 41°12' W 008°41'0 0.0
2018-Jun-14 21:58N 41°12' W 008°41'0 0.0
2018-Jun-14 21:28N 41°12' W 008°41'0 0.0
2018-Jun-14 20:58N 41°12' W 008°41'0 0.0
2018-Jun-14 20:28N 41°12' W 008°41'0 0.0
2018-Jun-14 19:58N 41°12' W 008°41'0 0.0
2018-Jun-14 19:28N 41°12' W 008°41'0 0.0
2018-Jun-14 18:58N 41°12' W 008°41'0 0.0
2018-Jun-14 18:28N 41°12' W 008°41'0 0.0
2018-Jun-14 17:58N 41°12' W 008°41'0 0.0
2018-Jun-14 17:28N 41°12' W 008°41'0 0.0
2018-Jun-14 16:58N 41°12' W 008°41'0 0.0
2018-Jun-14 16:28N 41°12' W 008°41'0 0.0
2018-Jun-14 15:58N 41°12' W 008°41'0 0.0
2018-Jun-14 15:28N 41°12' W 008°41'0 0.0
2018-Jun-14 14:58N 41°12' W 008°41'0 0.0
2018-Jun-14 14:28N 41°12' W 008°41'0 0.0
2018-Jun-14 13:58N 41°12' W 008°41'0 0.0
2018-Jun-14 13:28N 41°12' W 008°41'0 0.0
2018-Jun-14 12:58N 41°12' W 008°41'0 0.0
2018-Jun-14 12:28N 41°12' W 008°41'0 0.0
2018-Jun-14 11:58N 41°12' W 008°41'0 0.0
2018-Jun-14 11:28N 41°12' W 008°41'0 0.0
2018-Jun-14 10:58N 41°12' W 008°41'0 0.0
2018-Jun-14 10:28N 41°12' W 008°41'0 0.0
2018-Jun-14 09:58N 41°12' W 008°41'0 0.0
2018-Jun-14 09:28N 41°12' W 008°41'0 0.0
2018-Jun-14 08:58N 41°12' W 008°41'0 0.0
2018-Jun-14 08:28N 41°12' W 008°41'0 0.0
2018-Jun-14 07:58N 41°12' W 008°41'0 0.0
2018-Jun-14 07:28N 41°12' W 008°41'0 0.0
2018-Jun-14 06:58N 41°12' W 008°41'0 0.0
2018-Jun-14 06:28N 41°12' W 008°41'0 0.0
2018-Jun-14 05:58N 41°12' W 008°41'0 0.0
2018-Jun-14 05:28N 41°12' W 008°41'0 0.0
2018-Jun-14 04:58N 41°12' W 008°41'0 0.0
2018-Jun-14 04:28N 41°12' W 008°41'0 0.0
2018-Jun-14 03:58N 41°12' W 008°41'  
Track history (hours):
 
Tides and Currents Weather Stations Pressure Air Temp Water Temp Dewpoint Dewpoint Depression Visibility Wind Speed Wind Dir Waves Ship Positions

Blue Note

Last reported at 2018-Jun-24 03:30 UTC. Time now 2018-Jun-24 03:41 UTC.
Position N 38°57' W 009°50'.

Length 89 m; draft 4 m.

Type: Cargo ship. MMSI: 305565000.

Date/timePositionNaut miles runAvg speedWind from/ knotsBaromVisibWave heightAir tempDewpointWater temp
2018-Jun-24 03:30N 38°57' W 009°50'5 9.6
2018-Jun-24 03:00N 38°52' W 009°50'5 9.5
2018-Jun-24 02:30N 38°47' W 009°50'5 9.5
2018-Jun-24 02:01N 38°43' W 009°50'5 9.4
2018-Jun-24 01:30N 38°38' W 009°48'510.2
2018-Jun-24 01:00N 38°36' W 009°42'5 9.9
2018-Jun-24 00:30N 38°34' W 009°37'5 9.8
2018-Jun-24 00:00N 38°32' W 009°31'510.1
2018-Jun-23 23:30N 38°29' W 009°26'510.2
2018-Jun-23 23:00N 38°25' W 009°21'510.4
2018-Jun-23 22:31N 38°22' W 009°16'5 9.7
2018-Jun-23 22:00N 38°21' W 009°10'510.0
2018-Jun-23 21:30N 38°23' W 009°04'510.4
2018-Jun-23 21:00N 38°26' W 008°59'4 8.1
2018-Jun-23 20:30N 38°30' W 008°55'3 0.9
2018-Jun-23 17:23N 38°31' W 008°52'0 0.0
2018-Jun-23 16:59N 38°31' W 008°52'0 0.0
2018-Jun-23 16:26N 38°31' W 008°52'0 0.0
2018-Jun-23 16:01N 38°31' W 008°52'0 0.0
2018-Jun-23 15:31N 38°31' W 008°52'0 0.0
2018-Jun-23 15:01N 38°31' W 008°52'0 0.0
2018-Jun-23 14:31N 38°31' W 008°52'0 0.0
2018-Jun-23 13:04N 38°31' W 008°52'0 0.0
2018-Jun-23 12:52N 38°31' W 008°52'0 0.0
2018-Jun-23 12:30N 38°31' W 008°52'0 0.0
2018-Jun-23 11:36N 38°31' W 008°52'0 0.1
2018-Jun-23 11:30N 38°31' W 008°52'0 0.0
2018-Jun-23 10:57N 38°31' W 008°52'0 0.0
2018-Jun-23 09:45N 38°31' W 008°52'0 0.0
2018-Jun-23 05:36N 38°31' W 008°52'0 0.0
2018-Jun-23 05:24N 38°31' W 008°52'0 0.0
2018-Jun-23 04:54N 38°31' W 008°52'0 0.0
2018-Jun-23 04:24N 38°31' W 008°52'0 0.0
2018-Jun-23 03:00N 38°31' W 008°52'0 0.0
2018-Jun-23 02:24N 38°31' W 008°52'0 0.0
2018-Jun-23 01:45N 38°31' W 008°52'0 0.0
2018-Jun-23 01:30N 38°31' W 008°52'0 0.0
2018-Jun-23 01:00N 38°31' W 008°52'0 0.0
2018-Jun-23 00:30N 38°31' W 008°52'0 0.0
2018-Jun-23 00:00N 38°31' W 008°52'0 0.0
2018-Jun-22 23:24N 38°31' W 008°52'0 0.0
2018-Jun-22 22:54N 38°31' W 008°52'0 0.0
2018-Jun-22 22:30N 38°31' W 008°52'0 0.0
2018-Jun-22 22:00N 38°31' W 008°52'0 0.0
2018-Jun-22 21:27N 38°31' W 008°52'0 0.0
2018-Jun-22 20:57N 38°31' W 008°52'0 0.0
2018-Jun-22 20:27N 38°31' W 008°52'0 0.0
2018-Jun-22 20:00N 38°31' W 008°52'0 0.0
2018-Jun-22 19:27N 38°31' W 008°52'0 0.0
2018-Jun-22 18:54N 38°31' W 008°52'0 0.0
2018-Jun-22 18:21N 38°31' W 008°52'0 0.0
2018-Jun-22 17:51N 38°31' W 008°52'0 0.0
2018-Jun-22 17:27N 38°31' W 008°52'0 0.0
2018-Jun-22 16:37N 38°31' W 008°52'0 0.0
2018-Jun-22 16:24N 38°31' W 008°52'0 0.0
2018-Jun-22 16:00N 38°31' W 008°52'0 0.0
2018-Jun-22 15:30N 38°31' W 008°52'0 0.0
2018-Jun-22 11:54N 38°31' W 008°52'0 0.0
2018-Jun-22 11:30N 38°31' W 008°52'0 0.0
2018-Jun-22 10:42N 38°31' W 008°52'0 0.0
2018-Jun-22 10:30N 38°31' W 008°52'0 0.0
2018-Jun-22 05:36N 38°31' W 008°52'0 0.0
2018-Jun-22 03:42N 38°31' W 008°52'0 0.0
2018-Jun-21 17:15N 38°31' W 008°52'0 0.0
2018-Jun-21 16:48N 38°31' W 008°52'0 0.0
2018-Jun-21 16:27N 38°31' W 008°52'0 0.0
2018-Jun-21 16:00N 38°31' W 008°52'0 0.0
2018-Jun-21 15:30N 38°31' W 008°52'0 0.0
2018-Jun-21 14:57N 38°31' W 008°52'0 0.0
2018-Jun-21 14:27N 38°31' W 008°52'0 0.0
2018-Jun-21 14:00N 38°31' W 008°52'0 0.0
2018-Jun-21 13:30N 38°31' W 008°52'0 0.0
2018-Jun-21 13:00N 38°31' W 008°52'0 0.0
2018-Jun-21 11:57N 38°31' W 008°52'0 0.0
2018-Jun-21 10:33N 38°31' W 008°52'0 0.0
2018-Jun-21 10:24N 38°31' W 008°52'0 0.0
2018-Jun-21 09:57N 38°31' W 008°52'0 0.0
2018-Jun-21 09:12N 38°31' W 008°52'0 0.0
2018-Jun-21 06:33N 38°31' W 008°52'0 0.1
2018-Jun-21 06:27N 38°31' W 008°52'0 0.0
2018-Jun-21 05:21N 38°31' W 008°52'0 0.0
2018-Jun-21 04:39N 38°31' W 008°52'0 0.0
2018-Jun-21 04:15N 38°31' W 008°52'0 0.0
2018-Jun-21 03:57N 38°31' W 008°52'0 0.0
2018-Jun-21 03:30N 38°31' W 008°52'0 0.0
2018-Jun-21 02:54N 38°31' W 008°52'0 0.0
2018-Jun-21 02:30N 38°31' W 008°52'0 0.0
2018-Jun-21 01:09N 38°31' W 008°52'0 0.0
2018-Jun-21 00:57N 38°31' W 008°52'0 0.0
2018-Jun-20 22:53N 38°31' W 008°52'1 3.4
2018-Jun-20 22:28N 38°31' W 008°54'4 8.8
2018-Jun-20 22:00N 38°28' W 008°57'4 8.4
2018-Jun-20 21:30N 38°24' W 008°60'510.3
2018-Jun-20 21:00N 38°19' W 009°01'510.6
2018-Jun-20 20:30N 38°14' W 009°02'510.2
2018-Jun-20 20:00N 38°09' W 009°03'510.1
2018-Jun-20 19:30N 38°04' W 009°04'510.1
2018-Jun-20 19:00N 37°59' W 009°05'510.5
2018-Jun-20 18:30N 37°53' W 009°07'510.7
2018-Jun-20 18:00N 37°48' W 009°08'510.6
2018-Jun-20 17:30N 37°43' W 009°10'510.9
2018-Jun-20 17:00N 37°38' W 009°11'510.9
2018-Jun-20 16:30N 37°32' W 009°13'510.6
2018-Jun-20 16:00N 37°27' W 009°14'610.5
2018-Jun-20 15:25N 37°21' W 009°15'50 9.0
2018-Jun-20 09:50N 36°34' W 008°55'3810.3
2018-Jun-20 06:09N 35°58' W 008°38'  
2018-Jun-17 12:48N 35°47' W 008°41'36 8.1
2018-Jun-17 08:25N 36°19' W 008°59'4 8.2
2018-Jun-17 07:59N 36°23' W 009°00'4 8.6
2018-Jun-17 07:28N 36°27' W 009°03'36 8.2
2018-Jun-17 03:05N 36°52' W 009°36'1 8.9
2018-Jun-17 03:00N 36°52' W 009°36'5 9.3
2018-Jun-17 02:30N 36°57' W 009°37'5 9.5
2018-Jun-17 02:00N 37°01' W 009°38'6 9.3
2018-Jun-17 01:20N 37°08' W 009°40'4 9.5
2018-Jun-17 00:52N 37°12' W 009°41'49 9.1
2018-Jun-16 19:28N 37°60' W 009°55'5 9.1
2018-Jun-16 18:52N 38°05' W 009°57'3 9.0
2018-Jun-16 18:30N 38°08' W 009°58'5 9.1
2018-Jun-16 18:00N 38°13' W 009°59'5 9.1
2018-Jun-16 17:30N 38°17' W 010°00'4 8.9
2018-Jun-16 17:00N 38°21' W 010°01'5 9.1
2018-Jun-16 16:30N 38°26' W 010°02'5 9.4
2018-Jun-16 16:00N 38°30' W 010°04'5 9.3
2018-Jun-16 15:30N 38°35' W 010°05'5 9.5
2018-Jun-16 15:00N 38°40' W 010°06'5 9.2
2018-Jun-16 14:30N 38°44' W 010°07'5 9.2
2018-Jun-16 14:00N 38°49' W 010°07'5 9.1
2018-Jun-16 13:30N 38°53' W 010°06'5 9.1
2018-Jun-16 13:00N 38°58' W 010°06'5 9.1
2018-Jun-16 12:30N 39°02' W 010°05'5 9.2
2018-Jun-16 12:00N 39°07' W 010°04'5 9.2
2018-Jun-16 11:30N 39°11' W 010°03'5 9.2
2018-Jun-16 11:00N 39°16' W 010°02'5 9.3
2018-Jun-16 10:30N 39°21' W 010°00'5 9.5
2018-Jun-16 10:00N 39°25' W 009°59'18 9.2
2018-Jun-16 08:05N 39°42' W 009°53'1 9.2
2018-Jun-16 08:00N 39°43' W 009°53'5 9.3
2018-Jun-16 07:30N 39°47' W 009°51'17 9.3
2018-Jun-16 05:41N 40°04' W 009°45'2 9.4
2018-Jun-16 05:26N 40°06' W 009°44'5 9.2
2018-Jun-16 04:56N 40°10' W 009°43'4 8.9
2018-Jun-16 04:30N 40°14' W 009°42'5 8.9
2018-Jun-16 03:59N 40°19' W 009°41'4 8.9
2018-Jun-16 03:29N 40°23' W 009°39'11 9.2
2018-Jun-16 02:18N 40°33' W 009°35'5 9.1
2018-Jun-16 01:48N 40°38' W 009°34'18 9.1
2018-Jun-15 23:48N 40°55' W 009°28'1 2.6
2018-Jun-15 23:30N 40°56' W 009°28'36 6.6
2018-Jun-15 18:06N 41°09' W 008°43'1 9.0
2018-Jun-15 18:00N 41°09' W 008°43'3 3.5
2018-Jun-15 17:16N 41°12' W 008°41'0 0.0
2018-Jun-15 16:52N 41°12' W 008°41'0 0.0
2018-Jun-15 16:25N 41°12' W 008°41'0 0.0
2018-Jun-15 15:55N 41°12' W 008°41'0 0.0
2018-Jun-15 15:25N 41°12' W 008°41'0 0.0
2018-Jun-15 14:58N 41°12' W 008°41'0 0.0
2018-Jun-15 14:19N 41°12' W 008°41'0 0.0
2018-Jun-15 13:25N 41°12' W 008°41'0 0.0
2018-Jun-15 12:58N 41°12' W 008°41'0 0.0
2018-Jun-15 12:28N 41°12' W 008°41'0 0.0
2018-Jun-15 11:52N 41°12' W 008°41'0 0.0
2018-Jun-15 10:43N 41°12' W 008°41'0 0.0
2018-Jun-15 10:28N 41°12' W 008°41'0 0.0
2018-Jun-15 09:58N 41°12' W 008°41'0 0.0
2018-Jun-15 09:28N 41°12' W 008°41'0 0.0
2018-Jun-15 08:58N 41°12' W 008°41'0 0.0
2018-Jun-15 08:22N 41°12' W 008°41'0 0.0
2018-Jun-15 07:58N 41°12' W 008°41'0 0.0
2018-Jun-15 07:28N 41°12' W 008°41'0 0.0
2018-Jun-15 06:58N 41°12' W 008°41'0 0.0
2018-Jun-15 06:25N 41°12' W 008°41'0 0.0
2018-Jun-15 05:58N 41°12' W 008°41'0 0.0
2018-Jun-15 05:28N 41°12' W 008°41'0 0.0
2018-Jun-15 04:58N 41°12' W 008°41'0 0.0
2018-Jun-15 04:28N 41°12' W 008°41'0 0.0
2018-Jun-15 03:58N 41°12' W 008°41'0 0.0
2018-Jun-15 03:28N 41°12' W 008°41'0 0.0
2018-Jun-15 02:58N 41°12' W 008°41'0 0.0
2018-Jun-15 02:28N 41°12' W 008°41'0 0.0
2018-Jun-15 01:58N 41°12' W 008°41'0 0.0
2018-Jun-15 01:28N 41°12' W 008°41'0 0.0
2018-Jun-15 00:58N 41°12' W 008°41'0 0.0
2018-Jun-15 00:28N 41°12' W 008°41'0 0.0
2018-Jun-14 23:58N 41°12' W 008°41'0 0.0
2018-Jun-14 23:25N 41°12' W 008°41'0 0.0
2018-Jun-14 22:58N 41°12' W 008°41'0 0.0
2018-Jun-14 22:28N 41°12' W 008°41'0 0.0
2018-Jun-14 21:58N 41°12' W 008°41'0 0.0
2018-Jun-14 21:28N 41°12' W 008°41'0 0.0
2018-Jun-14 20:58N 41°12' W 008°41'0 0.0
2018-Jun-14 20:28N 41°12' W 008°41'0 0.0
2018-Jun-14 19:58N 41°12' W 008°41'0 0.0
2018-Jun-14 19:28N 41°12' W 008°41'0 0.0
2018-Jun-14 18:58N 41°12' W 008°41'0 0.0
2018-Jun-14 18:28N 41°12' W 008°41'0 0.0
2018-Jun-14 17:58N 41°12' W 008°41'0 0.0
2018-Jun-14 17:28N 41°12' W 008°41'0 0.0
2018-Jun-14 16:58N 41°12' W 008°41'0 0.0
2018-Jun-14 16:28N 41°12' W 008°41'0 0.0
2018-Jun-14 15:58N 41°12' W 008°41'0 0.0
2018-Jun-14 15:28N 41°12' W 008°41'0 0.0
2018-Jun-14 14:58N 41°12' W 008°41'0 0.0
2018-Jun-14 14:28N 41°12' W 008°41'0 0.0
2018-Jun-14 13:58N 41°12' W 008°41'0 0.0
2018-Jun-14 13:28N 41°12' W 008°41'0 0.0
2018-Jun-14 12:58N 41°12' W 008°41'0 0.0
2018-Jun-14 12:28N 41°12' W 008°41'0 0.0
2018-Jun-14 11:58N 41°12' W 008°41'0 0.0
2018-Jun-14 11:28N 41°12' W 008°41'0 0.0
2018-Jun-14 10:58N 41°12' W 008°41'0 0.0
2018-Jun-14 10:28N 41°12' W 008°41'0 0.0
2018-Jun-14 09:58N 41°12' W 008°41'0 0.0
2018-Jun-14 09:28N 41°12' W 008°41'0 0.0
2018-Jun-14 08:58N 41°12' W 008°41'0 0.0
2018-Jun-14 08:28N 41°12' W 008°41'0 0.0
2018-Jun-14 07:58N 41°12' W 008°41'0 0.0
2018-Jun-14 07:28N 41°12' W 008°41'0 0.0
2018-Jun-14 06:58N 41°12' W 008°41'0 0.0
2018-Jun-14 06:28N 41°12' W 008°41'0 0.0
2018-Jun-14 05:58N 41°12' W 008°41'0 0.0
2018-Jun-14 05:28N 41°12' W 008°41'0 0.0
2018-Jun-14 04:58N 41°12' W 008°41'0 0.0
2018-Jun-14 04:28N 41°12' W 008°41'0 0.0
2018-Jun-14 03:58N 41°12' W 008°41'  

Dump ship's entire track history